sensor_id;sensor_type;location;lat;lon;timestamp;P1;durP1;ratioP1;P2;durP2;ratioP2
13897;SDS011;7019;50.766;4.474;2024-03-23T00:55:10;5.23;;;2.60;;
13897;SDS011;7019;50.766;4.474;2024-03-23T00:57:37;8.77;;;2.47;;
13897;SDS011;7019;50.766;4.474;2024-03-23T01:00:04;5.37;;;2.60;;
13897;SDS011;7019;50.766;4.474;2024-03-23T01:02:31;9.30;;;3.33;;
13897;SDS011;7019;50.766;4.474;2024-03-23T01:04:58;10.60;;;2.50;;
13897;SDS011;7019;50.766;4.474;2024-03-23T01:07:24;8.03;;;3.33;;
13897;SDS011;7019;50.766;4.474;2024-03-23T01:09:53;6.03;;;2.77;;
13897;SDS011;7019;50.766;4.474;2024-03-23T01:12:19;5.27;;;2.77;;
13897;SDS011;7019;50.766;4.474;2024-03-23T01:14:46;9.03;;;2.83;;
13897;SDS011;7019;50.766;4.474;2024-03-23T01:17:12;5.80;;;3.53;;
13897;SDS011;7019;50.766;4.474;2024-03-23T01:19:39;4.73;;;2.30;;
13897;SDS011;7019;50.766;4.474;2024-03-23T01:22:06;9.63;;;3.40;;
13897;SDS011;7019;50.766;4.474;2024-03-23T01:24:35;12.47;;;3.03;;
13897;SDS011;7019;50.766;4.474;2024-03-23T01:27:02;7.30;;;3.43;;
13897;SDS011;7019;50.766;4.474;2024-03-23T01:29:30;7.57;;;3.43;;
13897;SDS011;7019;50.766;4.474;2024-03-23T01:31:56;6.23;;;2.60;;
13897;SDS011;7019;50.766;4.474;2024-03-23T01:34:23;14.20;;;3.43;;
13897;SDS011;7019;50.766;4.474;2024-03-23T01:36:50;11.93;;;3.60;;
13897;SDS011;7019;50.766;4.474;2024-03-23T01:39:17;5.93;;;3.00;;
13897;SDS011;7019;50.766;4.474;2024-03-23T01:41:43;7.17;;;3.27;;
13897;SDS011;7019;50.766;4.474;2024-03-23T01:44:11;9.97;;;3.20;;
13897;SDS011;7019;50.766;4.474;2024-03-23T01:46:37;8.63;;;4.47;;
13897;SDS011;7019;50.766;4.474;2024-03-23T01:49:06;9.43;;;4.03;;
13897;SDS011;7019;50.766;4.474;2024-03-23T01:51:33;11.57;;;4.07;;
13897;SDS011;7019;50.766;4.474;2024-03-23T01:54:01;11.57;;;3.57;;
13897;SDS011;7019;50.766;4.474;2024-03-23T01:56:28;8.33;;;4.13;;
13897;SDS011;7019;50.766;4.474;2024-03-23T01:58:56;7.43;;;3.73;;
13897;SDS011;7019;50.766;4.474;2024-03-23T02:01:23;13.80;;;4.87;;
13897;SDS011;7019;50.766;4.474;2024-03-23T02:03:50;9.07;;;4.53;;
13897;SDS011;7019;50.766;4.474;2024-03-23T02:06:17;12.43;;;4.90;;
13897;SDS011;7019;50.766;4.474;2024-03-23T02:08:44;15.83;;;4.67;;
13897;SDS011;7019;50.766;4.474;2024-03-23T02:11:10;10.13;;;4.80;;
13897;SDS011;7019;50.766;4.474;2024-03-23T02:13:37;11.00;;;4.53;;
13897;SDS011;7019;50.766;4.474;2024-03-23T02:16:04;9.37;;;5.67;;
13897;SDS011;7019;50.766;4.474;2024-03-23T02:18:33;14.50;;;5.07;;
13897;SDS011;7019;50.766;4.474;2024-03-23T02:20:59;14.03;;;5.30;;
13897;SDS011;7019;50.766;4.474;2024-03-23T02:23:28;14.23;;;5.77;;
13897;SDS011;7019;50.766;4.474;2024-03-23T02:25:54;10.03;;;5.10;;
13897;SDS011;7019;50.766;4.474;2024-03-23T02:28:21;10.87;;;5.10;;
13897;SDS011;7019;50.766;4.474;2024-03-23T02:30:47;10.20;;;5.50;;
13897;SDS011;7019;50.766;4.474;2024-03-23T02:33:14;14.33;;;7.43;;
13897;SDS011;7019;50.766;4.474;2024-03-23T02:35:41;11.07;;;6.23;;
13897;SDS011;7019;50.766;4.474;2024-03-23T02:38:08;16.93;;;7.77;;
13897;SDS011;7019;50.766;4.474;2024-03-23T02:40:36;18.20;;;7.27;;
13897;SDS011;7019;50.766;4.474;2024-03-23T02:43:03;15.43;;;7.17;;
13897;SDS011;7019;50.766;4.474;2024-03-23T02:45:29;15.23;;;7.67;;
13897;SDS011;7019;50.766;4.474;2024-03-23T02:47:56;20.57;;;8.47;;
13897;SDS011;7019;50.766;4.474;2024-03-23T02:50:22;17.30;;;8.00;;
13897;SDS011;7019;50.766;4.474;2024-03-23T02:52:49;25.27;;;8.70;;
13897;SDS011;7019;50.766;4.474;2024-03-23T02:55:16;21.17;;;7.73;;
13897;SDS011;7019;50.766;4.474;2024-03-23T02:57:44;24.20;;;9.33;;
13897;SDS011;7019;50.766;4.474;2024-03-23T03:00:10;22.13;;;9.17;;
13897;SDS011;7019;50.766;4.474;2024-03-23T03:02:38;23.90;;;10.27;;
13897;SDS011;7019;50.766;4.474;2024-03-23T03:05:04;24.03;;;10.23;;
13897;SDS011;7019;50.766;4.474;2024-03-23T03:07:32;22.47;;;10.57;;
13897;SDS011;7019;50.766;4.474;2024-03-23T03:09:58;26.33;;;11.60;;
13897;SDS011;7019;50.766;4.474;2024-03-23T03:12:25;27.10;;;10.37;;
13897;SDS011;7019;50.766;4.474;2024-03-23T03:14:52;27.10;;;13.60;;
13897;SDS011;7019;50.766;4.474;2024-03-23T03:17:19;23.27;;;10.63;;
13897;SDS011;7019;50.766;4.474;2024-03-23T03:19:45;22.07;;;11.20;;
13897;SDS011;7019;50.766;4.474;2024-03-23T03:22:13;18.50;;;10.53;;
13897;SDS011;7019;50.766;4.474;2024-03-23T03:24:39;18.80;;;10.40;;
13897;SDS011;7019;50.766;4.474;2024-03-23T03:27:06;28.37;;;12.20;;
13897;SDS011;7019;50.766;4.474;2024-03-23T03:29:32;21.87;;;10.97;;
13897;SDS011;7019;50.766;4.474;2024-03-23T03:32:02;32.87;;;11.43;;
13897;SDS011;7019;50.766;4.474;2024-03-23T03:34:29;26.73;;;11.43;;
13897;SDS011;7019;50.766;4.474;2024-03-23T03:36:56;23.03;;;11.33;;
13897;SDS011;7019;50.766;4.474;2024-03-23T03:39:22;23.90;;;11.30;;
13897;SDS011;7019;50.766;4.474;2024-03-23T03:41:49;27.07;;;12.73;;
13897;SDS011;7019;50.766;4.474;2024-03-23T03:44:15;29.00;;;11.50;;
13897;SDS011;7019;50.766;4.474;2024-03-23T03:46:42;29.30;;;12.57;;
13897;SDS011;7019;50.766;4.474;2024-03-23T03:49:10;24.53;;;11.53;;
13897;SDS011;7019;50.766;4.474;2024-03-23T03:51:37;26.93;;;12.23;;
13897;SDS011;7019;50.766;4.474;2024-03-23T03:54:03;30.13;;;13.80;;
13897;SDS011;7019;50.766;4.474;2024-03-23T03:56:30;22.47;;;11.73;;
13897;SDS011;7019;50.766;4.474;2024-03-23T03:58:56;27.73;;;12.90;;
13897;SDS011;7019;50.766;4.474;2024-03-23T04:01:23;21.80;;;13.30;;
13897;SDS011;7019;50.766;4.474;2024-03-23T04:03:49;31.70;;;13.13;;
13897;SDS011;7019;50.766;4.474;2024-03-23T04:06:19;36.83;;;13.63;;
13897;SDS011;7019;50.766;4.474;2024-03-23T04:08:46;32.13;;;12.87;;
13897;SDS011;7019;50.766;4.474;2024-03-23T04:11:13;37.33;;;14.40;;
13897;SDS011;7019;50.766;4.474;2024-03-23T04:13:39;29.07;;;13.27;;
13897;SDS011;7019;50.766;4.474;2024-03-23T04:16:07;37.63;;;15.53;;
13897;SDS011;7019;50.766;4.474;2024-03-23T04:18:34;38.77;;;15.17;;
13897;SDS011;7019;50.766;4.474;2024-03-23T04:21:01;25.10;;;14.63;;
13897;SDS011;7019;50.766;4.474;2024-03-23T04:23:29;27.87;;;14.73;;
13897;SDS011;7019;50.766;4.474;2024-03-23T04:25:57;28.03;;;15.37;;
13897;SDS011;7019;50.766;4.474;2024-03-23T04:28:29;28.17;;;14.50;;
13897;SDS011;7019;50.766;4.474;2024-03-23T04:30:56;26.20;;;13.83;;
13897;SDS011;7019;50.766;4.474;2024-03-23T04:33:22;27.00;;;13.87;;
13897;SDS011;7019;50.766;4.474;2024-03-23T04:35:49;25.57;;;13.07;;
13897;SDS011;7019;50.766;4.474;2024-03-23T04:38:15;23.33;;;13.10;;
13897;SDS011;7019;50.766;4.474;2024-03-23T04:40:44;34.30;;;13.77;;
13897;SDS011;7019;50.766;4.474;2024-03-23T04:43:11;29.50;;;14.13;;
13897;SDS011;7019;50.766;4.474;2024-03-23T04:45:38;24.60;;;14.30;;
13897;SDS011;7019;50.766;4.474;2024-03-23T04:48:06;29.60;;;14.30;;
13897;SDS011;7019;50.766;4.474;2024-03-23T04:50:33;30.27;;;14.37;;
13897;SDS011;7019;50.766;4.474;2024-03-23T04:53:00;34.80;;;13.70;;
13897;SDS011;7019;50.766;4.474;2024-03-23T04:55:27;27.00;;;14.17;;
13897;SDS011;7019;50.766;4.474;2024-03-23T04:57:57;30.13;;;13.90;;
13897;SDS011;7019;50.766;4.474;2024-03-23T05:00:23;35.93;;;13.63;;
13897;SDS011;7019;50.766;4.474;2024-03-23T05:02:51;28.00;;;11.20;;
13897;SDS011;7019;50.766;4.474;2024-03-23T05:05:18;23.10;;;10.60;;
13897;SDS011;7019;50.766;4.474;2024-03-23T05:07:45;21.57;;;10.77;;
13897;SDS011;7019;50.766;4.474;2024-03-23T05:10:12;24.83;;;11.17;;
13897;SDS011;7019;50.766;4.474;2024-03-23T05:12:38;19.87;;;9.53;;
13897;SDS011;7019;50.766;4.474;2024-03-23T05:15:07;22.17;;;9.73;;
13897;SDS011;7019;50.766;4.474;2024-03-23T05:17:33;20.23;;;8.83;;
13897;SDS011;7019;50.766;4.474;2024-03-23T05:20:01;31.63;;;8.27;;
13897;SDS011;7019;50.766;4.474;2024-03-23T05:22:28;18.03;;;7.37;;
13897;SDS011;7019;50.766;4.474;2024-03-23T05:24:56;17.73;;;8.57;;
13897;SDS011;7019;50.766;4.474;2024-03-23T05:27:22;16.50;;;8.03;;
13897;SDS011;7019;50.766;4.474;2024-03-23T05:29:49;15.23;;;8.07;;
13897;SDS011;7019;50.766;4.474;2024-03-23T05:32:16;18.20;;;8.20;;
13897;SDS011;7019;50.766;4.474;2024-03-23T05:34:43;16.57;;;7.90;;
13897;SDS011;7019;50.766;4.474;2024-03-23T05:37:09;16.00;;;7.90;;
13897;SDS011;7019;50.766;4.474;2024-03-23T05:39:36;23.83;;;8.43;;
13897;SDS011;7019;50.766;4.474;2024-03-23T05:42:03;20.17;;;9.10;;
13897;SDS011;7019;50.766;4.474;2024-03-23T05:44:30;21.57;;;8.50;;
13897;SDS011;7019;50.766;4.474;2024-03-23T05:46:56;26.47;;;8.97;;
13897;SDS011;7019;50.766;4.474;2024-03-23T05:49:25;20.17;;;9.47;;
13897;SDS011;7019;50.766;4.474;2024-03-23T05:51:51;15.53;;;7.67;;
13897;SDS011;7019;50.766;4.474;2024-03-23T05:54:18;13.93;;;7.10;;
13897;SDS011;7019;50.766;4.474;2024-03-23T05:56:44;15.10;;;7.60;;
13897;SDS011;7019;50.766;4.474;2024-03-23T05:59:11;17.10;;;6.50;;
13897;SDS011;7019;50.766;4.474;2024-03-23T06:01:37;15.70;;;5.57;;
13897;SDS011;7019;50.766;4.474;2024-03-23T06:04:04;11.40;;;6.07;;
13897;SDS011;7019;50.766;4.474;2024-03-23T06:06:32;13.90;;;6.03;;
13897;SDS011;7019;50.766;4.474;2024-03-23T06:08:59;19.10;;;6.30;;
13897;SDS011;7019;50.766;4.474;2024-03-23T06:11:25;14.10;;;5.07;;
13897;SDS011;7019;50.766;4.474;2024-03-23T06:13:52;15.43;;;5.50;;
13897;SDS011;7019;50.766;4.474;2024-03-23T06:16:18;12.00;;;5.53;;
13897;SDS011;7019;50.766;4.474;2024-03-23T06:18:48;14.93;;;4.93;;
13897;SDS011;7019;50.766;4.474;2024-03-23T06:21:14;14.37;;;4.67;;
13897;SDS011;7019;50.766;4.474;2024-03-23T06:23:43;15.53;;;4.80;;
13897;SDS011;7019;50.766;4.474;2024-03-23T06:26:16;16.93;;;3.93;;
13897;SDS011;7019;50.766;4.474;2024-03-23T06:28:43;13.47;;;4.00;;
13897;SDS011;7019;50.766;4.474;2024-03-23T06:31:09;17.23;;;3.77;;
13897;SDS011;7019;50.766;4.474;2024-03-23T06:33:36;15.70;;;4.50;;
13897;SDS011;7019;50.766;4.474;2024-03-23T06:36:03;18.57;;;4.53;;
13897;SDS011;7019;50.766;4.474;2024-03-23T06:38:30;11.97;;;3.83;;
13897;SDS011;7019;50.766;4.474;2024-03-23T06:40:58;10.30;;;3.60;;
13897;SDS011;7019;50.766;4.474;2024-03-23T06:43:25;17.13;;;3.90;;
13897;SDS011;7019;50.766;4.474;2024-03-23T06:45:54;12.60;;;2.87;;
13897;SDS011;7019;50.766;4.474;2024-03-23T06:48:22;12.93;;;3.20;;
13897;SDS011;7019;50.766;4.474;2024-03-23T06:50:48;11.87;;;2.87;;
13897;SDS011;7019;50.766;4.474;2024-03-23T06:53:15;9.00;;;3.77;;
13897;SDS011;7019;50.766;4.474;2024-03-23T06:55:41;16.47;;;3.03;;
13897;SDS011;7019;50.766;4.474;2024-03-23T06:58:17;13.23;;;3.30;;
13897;SDS011;7019;50.766;4.474;2024-03-23T07:00:44;11.90;;;2.53;;
13897;SDS011;7019;50.766;4.474;2024-03-23T07:03:11;14.83;;;2.77;;
13897;SDS011;7019;50.766;4.474;2024-03-23T07:05:37;13.30;;;3.50;;
13897;SDS011;7019;50.766;4.474;2024-03-23T07:08:05;10.67;;;2.57;;
13897;SDS011;7019;50.766;4.474;2024-03-23T07:10:31;9.47;;;2.43;;
13897;SDS011;7019;50.766;4.474;2024-03-23T07:12:58;8.87;;;2.73;;
13897;SDS011;7019;50.766;4.474;2024-03-23T07:15:26;9.80;;;2.87;;
13897;SDS011;7019;50.766;4.474;2024-03-23T07:17:53;8.27;;;2.13;;
13897;SDS011;7019;50.766;4.474;2024-03-23T07:20:19;8.00;;;2.23;;
13897;SDS011;7019;50.766;4.474;2024-03-23T07:22:46;11.57;;;2.37;;
13897;SDS011;7019;50.766;4.474;2024-03-23T07:25:12;7.63;;;2.03;;
13897;SDS011;7019;50.766;4.474;2024-03-23T07:27:39;10.40;;;2.30;;
13897;SDS011;7019;50.766;4.474;2024-03-23T07:30:06;6.90;;;2.13;;
13897;SDS011;7019;50.766;4.474;2024-03-23T07:32:35;15.23;;;2.80;;
13897;SDS011;7019;50.766;4.474;2024-03-23T07:35:01;7.97;;;2.10;;
13897;SDS011;7019;50.766;4.474;2024-03-23T07:37:29;20.77;;;3.43;;
13897;SDS011;7019;50.766;4.474;2024-03-23T07:39:55;6.73;;;2.07;;
13897;SDS011;7019;50.766;4.474;2024-03-23T07:42:22;10.20;;;2.00;;
13897;SDS011;7019;50.766;4.474;2024-03-23T07:44:48;8.97;;;2.10;;
13897;SDS011;7019;50.766;4.474;2024-03-23T07:47:15;10.43;;;1.97;;
13897;SDS011;7019;50.766;4.474;2024-03-23T07:49:43;10.57;;;2.87;;
13897;SDS011;7019;50.766;4.474;2024-03-23T07:52:10;7.90;;;2.90;;
13897;SDS011;7019;50.766;4.474;2024-03-23T07:54:36;9.53;;;2.30;;
13897;SDS011;7019;50.766;4.474;2024-03-23T07:57:03;12.33;;;1.93;;
13897;SDS011;7019;50.766;4.474;2024-03-23T07:59:29;7.90;;;2.90;;
13897;SDS011;7019;50.766;4.474;2024-03-23T08:01:58;7.67;;;2.13;;
13897;SDS011;7019;50.766;4.474;2024-03-23T08:04:25;9.47;;;2.23;;
13897;SDS011;7019;50.766;4.474;2024-03-23T08:06:54;16.27;;;2.80;;
13897;SDS011;7019;50.766;4.474;2024-03-23T08:09:20;10.67;;;2.27;;
13897;SDS011;7019;50.766;4.474;2024-03-23T08:11:47;7.00;;;1.77;;
13897;SDS011;7019;50.766;4.474;2024-03-23T08:14:13;6.33;;;1.63;;
13897;SDS011;7019;50.766;4.474;2024-03-23T08:16:40;10.13;;;2.37;;
13897;SDS011;7019;50.766;4.474;2024-03-23T08:19:07;8.57;;;2.00;;
13897;SDS011;7019;50.766;4.474;2024-03-23T08:21:34;6.43;;;2.00;;
13897;SDS011;7019;50.766;4.474;2024-03-23T08:24:02;12.40;;;2.33;;
13897;SDS011;7019;50.766;4.474;2024-03-23T08:26:30;8.90;;;2.73;;
13897;SDS011;7019;50.766;4.474;2024-03-23T08:28:56;7.73;;;2.10;;
13897;SDS011;7019;50.766;4.474;2024-03-23T08:31:23;5.37;;;2.17;;
13897;SDS011;7019;50.766;4.474;2024-03-23T08:33:49;8.53;;;2.60;;
13897;SDS011;7019;50.766;4.474;2024-03-23T08:36:16;9.20;;;2.10;;
13897;SDS011;7019;50.766;4.474;2024-03-23T08:38:42;9.67;;;2.40;;
13897;SDS011;7019;50.766;4.474;2024-03-23T08:41:11;9.50;;;3.17;;
13897;SDS011;7019;50.766;4.474;2024-03-23T08:43:37;5.47;;;1.63;;
13897;SDS011;7019;50.766;4.474;2024-03-23T08:46:05;9.43;;;2.47;;
13897;SDS011;7019;50.766;4.474;2024-03-23T08:48:32;12.17;;;2.20;;
13897;SDS011;7019;50.766;4.474;2024-03-23T08:51:00;5.50;;;1.63;;
13897;SDS011;7019;50.766;4.474;2024-03-23T08:53:27;8.03;;;2.13;;
13897;SDS011;7019;50.766;4.474;2024-03-23T08:55:55;5.43;;;1.90;;
13897;SDS011;7019;50.766;4.474;2024-03-23T08:58:25;8.03;;;2.20;;
13897;SDS011;7019;50.766;4.474;2024-03-23T09:00:53;6.23;;;1.83;;
13897;SDS011;7019;50.766;4.474;2024-03-23T09:03:21;8.03;;;1.47;;
13897;SDS011;7019;50.766;4.474;2024-03-23T09:05:48;9.20;;;2.00;;
13897;SDS011;7019;50.766;4.474;2024-03-23T09:08:15;9.07;;;2.47;;
13897;SDS011;7019;50.766;4.474;2024-03-23T09:10:42;6.50;;;2.27;;
13897;SDS011;7019;50.766;4.474;2024-03-23T09:13:08;5.97;;;1.77;;
13897;SDS011;7019;50.766;4.474;2024-03-23T09:15:44;6.70;;;1.90;;
13897;SDS011;7019;50.766;4.474;2024-03-23T09:18:12;6.00;;;1.67;;
13897;SDS011;7019;50.766;4.474;2024-03-23T09:20:39;6.47;;;1.67;;
13897;SDS011;7019;50.766;4.474;2024-03-23T09:23:05;9.20;;;2.33;;
13897;SDS011;7019;50.766;4.474;2024-03-23T09:25:32;7.63;;;2.23;;
13897;SDS011;7019;50.766;4.474;2024-03-23T09:28:02;4.33;;;1.80;;
13897;SDS011;7019;50.766;4.474;2024-03-23T09:30:29;5.97;;;1.87;;
13897;SDS011;7019;50.766;4.474;2024-03-23T09:32:56;5.77;;;2.27;;
13897;SDS011;7019;50.766;4.474;2024-03-23T09:35:23;6.23;;;2.27;;
13897;SDS011;7019;50.766;4.474;2024-03-23T09:37:49;5.80;;;1.83;;
13897;SDS011;7019;50.766;4.474;2024-03-23T09:40:16;6.50;;;1.87;;
13897;SDS011;7019;50.766;4.474;2024-03-23T09:42:42;6.57;;;1.90;;
13897;SDS011;7019;50.766;4.474;2024-03-23T09:45:21;10.20;;;2.30;;
13897;SDS011;7019;50.766;4.474;2024-03-23T09:47:47;6.73;;;1.77;;
13897;SDS011;7019;50.766;4.474;2024-03-23T09:50:17;6.20;;;1.77;;
13897;SDS011;7019;50.766;4.474;2024-03-23T09:52:45;7.37;;;1.80;;
13897;SDS011;7019;50.766;4.474;2024-03-23T09:55:12;10.03;;;1.70;;
13897;SDS011;7019;50.766;4.474;2024-03-23T09:57:39;2.37;;;1.00;;
13897;SDS011;7019;50.766;4.474;2024-03-23T10:00:06;8.50;;;1.60;;
13897;SDS011;7019;50.766;4.474;2024-03-23T10:02:33;3.17;;;1.17;;
13897;SDS011;7019;50.766;4.474;2024-03-23T10:05:00;5.67;;;1.33;;
13897;SDS011;7019;50.766;4.474;2024-03-23T10:07:28;4.53;;;1.30;;
13897;SDS011;7019;50.766;4.474;2024-03-23T10:09:55;6.00;;;1.30;;
13897;SDS011;7019;50.766;4.474;2024-03-23T10:12:22;6.90;;;1.23;;
13897;SDS011;7019;50.766;4.474;2024-03-23T10:14:50;5.87;;;1.20;;
13897;SDS011;7019;50.766;4.474;2024-03-23T10:17:16;4.43;;;1.00;;
13897;SDS011;7019;50.766;4.474;2024-03-23T10:19:44;4.73;;;1.43;;
13897;SDS011;7019;50.766;4.474;2024-03-23T10:22:12;3.33;;;1.10;;
13897;SDS011;7019;50.766;4.474;2024-03-23T10:24:41;3.77;;;0.80;;
13897;SDS011;7019;50.766;4.474;2024-03-23T10:27:07;5.20;;;1.30;;
13897;SDS011;7019;50.766;4.474;2024-03-23T10:29:35;6.37;;;1.17;;
13897;SDS011;7019;50.766;4.474;2024-03-23T10:32:07;5.87;;;1.57;;
13897;SDS011;7019;50.766;4.474;2024-03-23T10:34:35;3.87;;;0.80;;
13897;SDS011;7019;50.766;4.474;2024-03-23T10:37:02;3.07;;;0.73;;
13897;SDS011;7019;50.766;4.474;2024-03-23T10:39:31;3.53;;;0.73;;
13897;SDS011;7019;50.766;4.474;2024-03-23T10:42:01;4.53;;;0.87;;
13897;SDS011;7019;50.766;4.474;2024-03-23T10:44:30;3.23;;;0.60;;
13897;SDS011;7019;50.766;4.474;2024-03-23T10:46:57;4.57;;;0.90;;
13897;SDS011;7019;50.766;4.474;2024-03-23T10:49:28;3.40;;;1.10;;
13897;SDS011;7019;50.766;4.474;2024-03-23T10:51:58;4.23;;;0.93;;
13897;SDS011;7019;50.766;4.474;2024-03-23T10:54:25;4.50;;;0.80;;
13897;SDS011;7019;50.766;4.474;2024-03-23T10:56:53;1.67;;;0.57;;
13897;SDS011;7019;50.766;4.474;2024-03-23T10:59:25;3.17;;;0.80;;
13897;SDS011;7019;50.766;4.474;2024-03-23T11:01:55;4.23;;;0.97;;
13897;SDS011;7019;50.766;4.474;2024-03-23T11:04:35;3.67;;;0.70;;
13897;SDS011;7019;50.766;4.474;2024-03-23T11:07:03;3.77;;;0.77;;
13897;SDS011;7019;50.766;4.474;2024-03-23T11:09:58;5.07;;;0.80;;
13897;SDS011;7019;50.766;4.474;2024-03-23T11:12:28;4.53;;;0.80;;
13897;SDS011;7019;50.766;4.474;2024-03-23T11:15:01;3.17;;;1.03;;
13897;SDS011;7019;50.766;4.474;2024-03-23T11:17:29;6.13;;;0.83;;
13897;SDS011;7019;50.766;4.474;2024-03-23T11:19:57;4.17;;;0.93;;
13897;SDS011;7019;50.766;4.474;2024-03-23T11:22:42;3.70;;;0.90;;
13897;SDS011;7019;50.766;4.474;2024-03-23T11:25:13;4.17;;;0.93;;
13897;SDS011;7019;50.766;4.474;2024-03-23T11:27:40;3.43;;;0.80;;
13897;SDS011;7019;50.766;4.474;2024-03-23T11:30:15;6.57;;;0.80;;
13897;SDS011;7019;50.766;4.474;2024-03-23T11:32:43;2.83;;;1.07;;
13897;SDS011;7019;50.766;4.474;2024-03-23T11:35:11;3.97;;;0.77;;
13897;SDS011;7019;50.766;4.474;2024-03-23T11:38:01;4.37;;;0.90;;
13897;SDS011;7019;50.766;4.474;2024-03-23T11:40:29;4.47;;;1.47;;
13897;SDS011;7019;50.766;4.474;2024-03-23T11:42:56;5.30;;;0.80;;
13897;SDS011;7019;50.766;4.474;2024-03-23T11:45:25;1.50;;;0.60;;
13897;SDS011;7019;50.766;4.474;2024-03-23T11:50:36;3.93;;;0.60;;
13897;SDS011;7019;50.766;4.474;2024-03-23T11:53:09;2.73;;;0.40;;
13897;SDS011;7019;50.766;4.474;2024-03-23T11:55:45;2.37;;;0.80;;
13897;SDS011;7019;50.766;4.474;2024-03-23T11:58:11;2.57;;;0.90;;
13897;SDS011;7019;50.766;4.474;2024-03-23T12:00:40;4.83;;;0.83;;
13897;SDS011;7019;50.766;4.474;2024-03-23T12:03:07;6.43;;;0.83;;
13897;SDS011;7019;50.766;4.474;2024-03-23T12:05:35;4.93;;;0.70;;
13897;SDS011;7019;50.766;4.474;2024-03-23T12:08:16;4.00;;;1.33;;
13897;SDS011;7019;50.766;4.474;2024-03-23T12:10:48;3.70;;;0.57;;
13897;SDS011;7019;50.766;4.474;2024-03-23T12:13:16;3.43;;;0.73;;
13897;SDS011;7019;50.766;4.474;2024-03-23T12:15:46;2.97;;;0.57;;
13897;SDS011;7019;50.766;4.474;2024-03-23T12:18:13;4.00;;;0.93;;
13897;SDS011;7019;50.766;4.474;2024-03-23T12:20:40;5.47;;;1.20;;
13897;SDS011;7019;50.766;4.474;2024-03-23T12:23:07;3.80;;;0.77;;
13897;SDS011;7019;50.766;4.474;2024-03-23T12:25:37;1.53;;;0.60;;
13897;SDS011;7019;50.766;4.474;2024-03-23T12:28:04;2.37;;;0.70;;
13897;SDS011;7019;50.766;4.474;2024-03-23T12:30:35;5.37;;;0.80;;
13897;SDS011;7019;50.766;4.474;2024-03-23T12:33:05;2.03;;;0.73;;
13897;SDS011;7019;50.766;4.474;2024-03-23T12:35:32;5.37;;;0.70;;
13897;SDS011;7019;50.766;4.474;2024-03-23T12:37:59;3.30;;;1.17;;
13897;SDS011;7019;50.766;4.474;2024-03-23T12:40:26;4.07;;;1.10;;
13897;SDS011;7019;50.766;4.474;2024-03-23T12:42:53;6.27;;;1.77;;
13897;SDS011;7019;50.766;4.474;2024-03-23T12:45:21;2.57;;;0.60;;
13897;SDS011;7019;50.766;4.474;2024-03-23T12:47:47;2.07;;;0.50;;
13897;SDS011;7019;50.766;4.474;2024-03-23T12:50:15;2.40;;;0.83;;
13897;SDS011;7019;50.766;4.474;2024-03-23T12:52:42;4.87;;;0.90;;
13897;SDS011;7019;50.766;4.474;2024-03-23T12:55:09;4.10;;;0.80;;
13897;SDS011;7019;50.766;4.474;2024-03-23T12:57:35;3.70;;;0.77;;
13897;SDS011;7019;50.766;4.474;2024-03-23T13:00:02;1.60;;;0.50;;
13897;SDS011;7019;50.766;4.474;2024-03-23T13:02:29;5.43;;;0.97;;
13897;SDS011;7019;50.766;4.474;2024-03-23T13:04:56;3.37;;;0.47;;
13897;SDS011;7019;50.766;4.474;2024-03-23T13:07:24;4.87;;;0.83;;
13897;SDS011;7019;50.766;4.474;2024-03-23T13:09:51;5.47;;;1.00;;
13897;SDS011;7019;50.766;4.474;2024-03-23T13:12:18;2.57;;;0.40;;
13897;SDS011;7019;50.766;4.474;2024-03-23T13:14:45;4.93;;;0.87;;
13897;SDS011;7019;50.766;4.474;2024-03-23T13:17:12;3.03;;;1.00;;
13897;SDS011;7019;50.766;4.474;2024-03-23T13:19:39;4.13;;;0.60;;
13897;SDS011;7019;50.766;4.474;2024-03-23T13:22:06;5.03;;;1.73;;
13897;SDS011;7019;50.766;4.474;2024-03-23T13:24:34;2.90;;;0.67;;
13897;SDS011;7019;50.766;4.474;2024-03-23T13:27:01;4.43;;;0.53;;
13897;SDS011;7019;50.766;4.474;2024-03-23T13:29:29;5.00;;;1.50;;
13897;SDS011;7019;50.766;4.474;2024-03-23T13:31:56;3.20;;;1.07;;
13897;SDS011;7019;50.766;4.474;2024-03-23T13:34:22;3.37;;;0.70;;
13897;SDS011;7019;50.766;4.474;2024-03-23T13:36:49;4.80;;;0.77;;
13897;SDS011;7019;50.766;4.474;2024-03-23T13:39:16;3.70;;;0.73;;
13897;SDS011;7019;50.766;4.474;2024-03-23T13:41:45;5.50;;;1.30;;
13897;SDS011;7019;50.766;4.474;2024-03-23T13:44:12;3.37;;;0.90;;
13897;SDS011;7019;50.766;4.474;2024-03-23T13:46:39;3.23;;;0.90;;
13897;SDS011;7019;50.766;4.474;2024-03-23T13:49:08;4.03;;;1.03;;
13897;SDS011;7019;50.766;4.474;2024-03-23T13:51:53;3.90;;;0.90;;
13897;SDS011;7019;50.766;4.474;2024-03-23T13:54:19;5.00;;;0.77;;
13897;SDS011;7019;50.766;4.474;2024-03-23T13:56:49;3.87;;;0.70;;
13897;SDS011;7019;50.766;4.474;2024-03-23T13:59:15;3.90;;;0.90;;
13897;SDS011;7019;50.766;4.474;2024-03-23T14:01:42;2.67;;;0.30;;
13897;SDS011;7019;50.766;4.474;2024-03-23T14:04:08;3.20;;;0.60;;
13897;SDS011;7019;50.766;4.474;2024-03-23T14:06:36;3.07;;;0.63;;
13897;SDS011;7019;50.766;4.474;2024-03-23T14:09:02;2.03;;;0.67;;
13897;SDS011;7019;50.766;4.474;2024-03-23T14:11:29;2.07;;;0.40;;
13897;SDS011;7019;50.766;4.474;2024-03-23T14:13:57;3.23;;;0.50;;
13897;SDS011;7019;50.766;4.474;2024-03-23T14:16:28;2.10;;;0.40;;
13897;SDS011;7019;50.766;4.474;2024-03-23T14:18:54;1.87;;;0.73;;
13897;SDS011;7019;50.766;4.474;2024-03-23T14:21:21;5.03;;;0.60;;
13897;SDS011;7019;50.766;4.474;2024-03-23T14:23:47;3.03;;;0.50;;
13897;SDS011;7019;50.766;4.474;2024-03-23T14:26:15;1.10;;;0.87;;
13897;SDS011;7019;50.766;4.474;2024-03-23T14:28:41;4.63;;;0.53;;
13897;SDS011;7019;50.766;4.474;2024-03-23T14:31:09;3.67;;;0.60;;
13897;SDS011;7019;50.766;4.474;2024-03-23T14:33:36;1.37;;;0.47;;
13897;SDS011;7019;50.766;4.474;2024-03-23T14:36:06;2.63;;;0.80;;
13897;SDS011;7019;50.766;4.474;2024-03-23T14:38:33;3.43;;;0.80;;
13897;SDS011;7019;50.766;4.474;2024-03-23T14:41:00;3.30;;;0.80;;
13897;SDS011;7019;50.766;4.474;2024-03-23T14:43:28;3.07;;;1.07;;
13897;SDS011;7019;50.766;4.474;2024-03-23T14:46:08;5.20;;;1.17;;
13897;SDS011;7019;50.766;4.474;2024-03-23T14:48:38;4.40;;;1.03;;
13897;SDS011;7019;50.766;4.474;2024-03-23T14:51:05;2.57;;;0.70;;
13897;SDS011;7019;50.766;4.474;2024-03-23T14:53:33;4.53;;;0.80;;
13897;SDS011;7019;50.766;4.474;2024-03-23T14:56:01;5.60;;;0.60;;
13897;SDS011;7019;50.766;4.474;2024-03-23T14:58:28;4.03;;;0.83;;
13897;SDS011;7019;50.766;4.474;2024-03-23T15:00:59;3.30;;;1.00;;
13897;SDS011;7019;50.766;4.474;2024-03-23T15:03:27;2.27;;;1.07;;
13897;SDS011;7019;50.766;4.474;2024-03-23T15:05:54;4.83;;;0.80;;
13897;SDS011;7019;50.766;4.474;2024-03-23T15:08:21;5.47;;;0.87;;
13897;SDS011;7019;50.766;4.474;2024-03-23T15:10:48;4.30;;;0.70;;
13897;SDS011;7019;50.766;4.474;2024-03-23T15:13:14;6.37;;;1.00;;
13897;SDS011;7019;50.766;4.474;2024-03-23T15:15:41;2.40;;;0.83;;
13897;SDS011;7019;50.766;4.474;2024-03-23T15:18:10;3.90;;;0.67;;
13897;SDS011;7019;50.766;4.474;2024-03-23T15:20:39;6.50;;;1.07;;
13897;SDS011;7019;50.766;4.474;2024-03-23T15:23:05;4.00;;;1.27;;
13897;SDS011;7019;50.766;4.474;2024-03-23T15:25:33;4.23;;;0.67;;
13897;SDS011;7019;50.766;4.474;2024-03-23T15:27:59;5.33;;;1.43;;
13897;SDS011;7019;50.766;4.474;2024-03-23T15:30:27;5.77;;;1.00;;
13897;SDS011;7019;50.766;4.474;2024-03-23T15:32:53;5.63;;;1.13;;
13897;SDS011;7019;50.766;4.474;2024-03-23T15:35:20;2.43;;;0.87;;
13897;SDS011;7019;50.766;4.474;2024-03-23T15:37:49;3.27;;;0.80;;
13897;SDS011;7019;50.766;4.474;2024-03-23T15:40:16;4.23;;;0.50;;
13897;SDS011;7019;50.766;4.474;2024-03-23T15:42:43;4.00;;;1.27;;
13897;SDS011;7019;50.766;4.474;2024-03-23T15:45:10;3.07;;;1.50;;
13897;SDS011;7019;50.766;4.474;2024-03-23T15:47:36;3.37;;;1.07;;
13897;SDS011;7019;50.766;4.474;2024-03-23T15:50:04;4.90;;;0.97;;
13897;SDS011;7019;50.766;4.474;2024-03-23T15:52:33;1.63;;;0.70;;